createdAt,value
2023-03-29T00:01:35.600Z,19.3
2023-03-29T00:07:28.632Z,19.3
2023-03-29T00:13:04.707Z,19.3
2023-03-29T00:18:56.682Z,19.3
2023-03-29T00:24:48.288Z,19.3
2023-03-29T00:30:24.951Z,19.3
2023-03-29T00:36:17.102Z,19.3
2023-03-29T00:41:53.489Z,19.3
2023-03-29T00:47:14.585Z,19.3
2023-03-29T00:52:50.665Z,19.3
2023-03-29T00:58:27.040Z,19.3
2023-03-29T01:04:04.454Z,19.3
2023-03-29T01:09:24.888Z,19.3
2023-03-29T01:15:00.597Z,19.3
2023-03-29T01:20:37.277Z,19.3
2023-03-29T01:26:28.364Z,19.3
2023-03-29T01:32:19.944Z,19.3
2023-03-29T01:38:11.938Z,19.3
2023-03-29T01:43:32.361Z,19.3
2023-03-29T01:49:08.594Z,19.3
2023-03-29T01:55:00.872Z,19.3
2023-03-29T02:00:36.870Z,19.3
2023-03-29T02:06:29.345Z,19.3
2023-03-29T02:12:21.434Z,19.3
2023-03-29T02:18:13.035Z,19.4
2023-03-29T02:23:49.601Z,19.6
2023-03-29T02:29:25.990Z,20.1
2023-03-29T02:35:18.102Z,20.9
2023-03-29T02:40:54.194Z,21.9
2023-03-29T02:46:17.362Z,22.9
2023-03-29T02:51:53.959Z,23.7
2023-03-29T02:57:45.796Z,24.5
2023-03-29T03:03:22.733Z,25.2
2023-03-29T03:09:13.736Z,25.8
2023-03-29T03:15:05.055Z,26.3
2023-03-29T03:20:45.330Z,26.8
2023-03-29T03:26:21.911Z,27.2
2023-03-29T03:32:13.645Z,27.7
2023-03-29T03:38:05.982Z,28
2023-03-29T03:43:30.282Z,28.1
2023-03-29T03:49:06.970Z,28.3
2023-03-29T03:54:27.978Z,28.4
2023-03-29T04:00:19.716Z,28.4
2023-03-29T04:05:57.259Z,28.5
2023-03-29T04:11:49.413Z,28.6
2023-03-29T04:17:26.340Z,28.6
2023-03-29T04:23:19.526Z,28.6
2023-03-29T04:29:11.680Z,28.6
2023-03-29T04:35:06.031Z,28.6
2023-03-29T04:40:43.715Z,28.6
2023-03-29T04:46:36.539Z,28.6
2023-03-29T04:52:12.607Z,28.6
2023-03-29T04:58:03.221Z,28.5
2023-03-29T05:03:57.979Z,28.6
2023-03-29T05:09:51.710Z,28.5
2023-03-29T05:15:43.734Z,28.5
2023-03-29T05:21:36.566Z,28.5
2023-03-29T05:27:27.147Z,28.4
2023-03-29T05:33:03.226Z,28.4
2023-03-29T05:38:39.509Z,28.4
2023-03-29T05:44:07.772Z,28.4
2023-03-29T05:49:44.568Z,28.4
2023-03-29T05:55:36.777Z,28.4
2023-03-29T06:01:28.881Z,28.4
2023-03-29T06:07:33.625Z,28.3
2023-03-29T06:13:25.526Z,28.3
2023-03-29T06:19:17.465Z,28.3
2023-03-29T06:25:09.643Z,28.3
2023-03-29T06:31:04.365Z,28.2
2023-03-29T06:36:56.134Z,28.2
2023-03-29T06:42:29.329Z,28.2
2023-03-29T06:48:21.743Z,28.1
2023-03-29T06:53:57.150Z,28.1
2023-03-29T06:59:49.404Z,28.1
2023-03-29T07:05:11.540Z,40.8
2023-03-29T07:10:47.910Z,39.7
2023-03-29T07:16:41.330Z,37.6
2023-03-29T07:22:18.672Z,36.1
2023-03-29T07:28:07.964Z,34.9
2023-03-29T07:33:59.984Z,34
2023-03-29T07:39:37.256Z,33.3
2023-03-29T07:45:12.856Z,41.6
2023-03-29T07:51:04.235Z,42.2
2023-03-29T07:56:56.396Z,41.8
2023-03-29T08:02:51.287Z,41.4
2023-03-29T08:08:25.734Z,43.2
2023-03-29T08:14:03.791Z,43.8
2023-03-29T08:19:40.762Z,43.7
2023-03-29T08:25:26.842Z,44.8
2023-03-29T08:31:19.534Z,45.5
2023-03-29T08:37:11.707Z,46.2
2023-03-29T08:42:47.828Z,46.8
2023-03-29T08:48:30.654Z,47
2023-03-29T08:53:35.495Z,47.7
2023-03-29T08:58:56.462Z,48.2
2023-03-29T09:04:33.770Z,48.8
2023-03-29T09:09:55.356Z,49.3
2023-03-29T09:15:32.100Z,49.8
2023-03-29T09:21:09.924Z,50.3
2023-03-29T09:26:58.708Z,50.7
2023-03-29T09:32:04.572Z,51.1
2023-03-29T09:37:41.762Z,51.7
2023-03-29T09:43:33.056Z,52.3
2023-03-29T09:49:18.708Z,52.4
2023-03-29T09:55:07.709Z,52.8
2023-03-29T10:00:44.757Z,53.4
2023-03-29T10:06:22.052Z,52.1
2023-03-29T10:12:01.351Z,52.8
2023-03-29T10:17:48.294Z,53.4
2023-03-29T10:23:28.411Z,53.9
2023-03-29T10:28:51.279Z,54.1
2023-03-29T10:34:27.761Z,54.7
2023-03-29T10:40:03.722Z,55.1
2023-03-29T10:45:25.141Z,55.4
2023-03-29T10:51:02.427Z,56
2023-03-29T10:56:37.949Z,56.6
2023-03-29T11:01:59.693Z,57
2023-03-29T11:07:36.585Z,57.5
2023-03-29T11:13:22.854Z,57.9
2023-03-29T11:19:01.630Z,58.3
2023-03-29T11:24:07.230Z,58.6
2023-03-29T11:29:28.406Z,58.9
2023-03-29T11:35:05.755Z,59.1
2023-03-29T11:40:26.980Z,59.4
2023-03-29T11:46:02.981Z,59.6
2023-03-29T11:51:42.186Z,59.8
2023-03-29T11:57:02.684Z,60.1
2023-03-29T12:02:40.250Z,60.2
2023-03-29T12:08:18.713Z,60.4
2023-03-29T12:13:57.470Z,60.5
2023-03-29T12:19:18.189Z,60.6
2023-03-29T12:24:58.170Z,60.7
2023-03-29T12:30:34.511Z,60.8
2023-03-29T12:35:56.030Z,60.7
2023-03-29T12:41:48.678Z,60.8
2023-03-29T12:47:40.865Z,60.8
2023-03-29T12:53:33.044Z,60.6
2023-03-29T12:59:25.851Z,60.5
2023-03-29T13:05:02.921Z,60.4
2023-03-29T13:10:54.124Z,60.2
2023-03-29T13:16:46.221Z,59.6
2023-03-29T13:22:52.398Z,58.3
2023-03-29T13:28:43.568Z,57.4
2023-03-29T13:34:35.951Z,56.9
2023-03-29T13:40:12.593Z,56.3
2023-03-29T13:46:03.652Z,55.5
2023-03-29T13:52:11.504Z,54.9
2023-03-29T13:58:06.456Z,54.7
2023-03-29T14:03:57.802Z,54.3
2023-03-29T14:09:50.269Z,53.8
2023-03-29T14:15:48.765Z,53.3
2023-03-29T14:21:40.664Z,52.6
2023-03-29T14:27:33.122Z,52.1
2023-03-29T14:33:09.509Z,51.6
2023-03-29T14:39:01.891Z,51
2023-03-29T14:44:54.388Z,50.3
2023-03-29T14:50:45.720Z,47.7
2023-03-29T14:56:37.022Z,44.9
2023-03-29T15:02:29.734Z,42.7
2023-03-29T15:08:24.285Z,40.8
2023-03-29T15:14:24.635Z,39.4
2023-03-29T15:21:34.769Z,38.1
2023-03-29T15:27:10.586Z,37.3
2023-03-29T15:33:18.415Z,36.6
2023-03-29T15:39:22.726Z,35.9
2023-03-29T15:45:15.705Z,35.4
2023-03-29T15:51:07.266Z,34.9
2023-03-29T15:57:10.794Z,34.4
2023-03-29T16:03:03.213Z,34.1
2023-03-29T16:08:55.532Z,33.7
2023-03-29T16:14:33.806Z,33.4
2023-03-29T16:20:25.509Z,33.1
2023-03-29T16:26:16.119Z,32.8
2023-03-29T16:31:37.284Z,32.6
2023-03-29T16:37:30.245Z,32.3
2023-03-29T16:43:21.432Z,31.9
2023-03-29T16:48:58.961Z,31.6
2023-03-29T16:54:19.677Z,31.3
2023-03-29T17:00:10.560Z,31
2023-03-29T17:06:06.286Z,30.8
2023-03-29T17:11:58.946Z,30.5
2023-03-29T17:17:35.267Z,30.3
2023-03-29T17:23:27.319Z,30.1
2023-03-29T17:29:18.842Z,29.9
2023-03-29T17:35:10.546Z,29.7
2023-03-29T17:41:03.667Z,29.6
2023-03-29T17:46:56.038Z,29.3
2023-03-29T17:52:50.767Z,29
2023-03-29T17:58:43.304Z,28.8
2023-03-29T18:04:36.403Z,28.6
2023-03-29T18:10:27.323Z,28.6
2023-03-29T18:16:19.895Z,28.4
2023-03-29T18:22:11.081Z,28.4
2023-03-29T18:27:31.145Z,28.3
2023-03-29T18:33:23.847Z,28.2
2023-03-29T18:39:19.715Z,28.1
2023-03-29T18:45:11.062Z,28.1
2023-03-29T18:51:05.119Z,28
2023-03-29T18:56:59.199Z,27.9
2023-03-29T19:02:51.111Z,27.9
2023-03-29T19:13:49.650Z,27.6
2023-03-29T19:19:41.373Z,27.3
2023-03-29T19:25:34.303Z,27
2023-03-29T19:31:26.225Z,26.8
2023-03-29T19:37:03.468Z,26.6
2023-03-29T19:42:40.366Z,26.5
2023-03-29T19:48:39.228Z,26.3
2023-03-29T19:54:31.339Z,25.9
2023-03-29T20:00:23.957Z,25.8
2023-03-29T20:05:45.835Z,25.6
2023-03-29T20:11:40.417Z,25.4
2023-03-29T20:17:48.111Z,25.3
2023-03-29T20:23:24.405Z,25.3
2023-03-29T20:29:16.061Z,25.2
2023-03-29T20:35:08.023Z,25.1
2023-03-29T20:41:03.911Z,25.1
2023-03-29T20:47:11.964Z,25
2023-03-29T20:52:48.048Z,25
2023-03-29T20:58:40.136Z,24.9
2023-03-29T21:04:16.074Z,24.9
2023-03-29T21:10:09.958Z,24.9
2023-03-29T21:16:05.055Z,24.9
2023-03-29T21:21:55.697Z,24.9
2023-03-29T21:27:31.934Z,24.8
2023-03-29T21:33:24.439Z,24.8
2023-03-29T21:39:16.314Z,24.8
2023-03-29T21:45:08.131Z,24.8
2023-03-29T21:51:00.343Z,24.8
2023-03-29T21:56:35.625Z,24.8
2023-03-29T22:02:12.435Z,24.8
2023-03-29T22:08:15.676Z,24.8
2023-03-29T22:14:07.339Z,24.7
2023-03-29T22:19:59.897Z,24.7
2023-03-29T22:25:51.965Z,24.7
2023-03-29T22:31:43.943Z,24.7
2023-03-29T22:37:36.452Z,24.7
2023-03-29T22:43:28.353Z,24.6
2023-03-29T22:49:20.472Z,24.6
2023-03-29T22:55:11.932Z,24.6
2023-03-29T23:00:48.935Z,24.6
2023-03-29T23:06:25.646Z,24.6
2023-03-29T23:12:16.556Z,24.6
2023-03-29T23:17:52.404Z,24.6
2023-03-29T23:23:42.899Z,24.6
2023-03-29T23:29:37.137Z,24.6
2023-03-29T23:35:29.010Z,24.6
2023-03-29T23:41:04.641Z,24.6
2023-03-29T23:46:57.808Z,24.6
2023-03-29T23:52:49.060Z,24.6
2023-03-29T23:58:40.007Z,24.5
